createdAt,value
2023-01-13T00:00:31.419Z,6.95
2023-01-13T00:03:33.609Z,6.93
2023-01-13T00:06:35.599Z,7.00
2023-01-13T00:09:37.535Z,6.89
2023-01-13T00:12:41.128Z,6.97
2023-01-13T00:15:43.781Z,6.97
2023-01-13T00:18:46.289Z,6.98
2023-01-13T00:21:48.147Z,7.03
2023-01-13T00:24:50.347Z,7.01
2023-01-13T00:27:52.222Z,7.04
2023-01-13T00:30:58.806Z,7.09
2023-01-13T00:34:01.552Z,7.09
2023-01-13T00:37:03.586Z,7.00
2023-01-13T00:40:06.339Z,7.05
2023-01-13T00:43:24.036Z,7.13
2023-01-13T00:46:26.089Z,7.10
2023-01-13T00:49:28.173Z,7.07
2023-01-13T00:52:32.428Z,7.14
2023-01-13T00:55:34.419Z,7.12
2023-01-13T00:58:36.810Z,7.16
2023-01-13T01:01:39.225Z,7.23
2023-01-13T01:04:41.605Z,7.12
2023-01-13T01:07:43.553Z,7.15
2023-01-13T01:10:45.549Z,7.16
2023-01-13T01:13:48.324Z,7.25
2023-01-13T01:16:50.213Z,7.28
2023-01-13T01:19:52.379Z,7.21
2023-01-13T01:22:54.353Z,7.25
2023-01-13T01:26:01.716Z,7.24
2023-01-13T01:29:03.696Z,7.28
2023-01-13T01:32:05.958Z,7.25
2023-01-13T01:35:08.318Z,7.30
2023-01-13T01:38:10.259Z,7.24
2023-01-13T01:41:18.646Z,7.39
2023-01-13T01:44:42.402Z,7.40
2023-01-13T01:47:48.376Z,7.43
2023-01-13T01:50:50.556Z,7.37
2023-01-13T01:53:57.297Z,7.41
2023-01-13T01:57:02.086Z,7.37
2023-01-13T02:00:06.082Z,7.43
2023-01-13T02:03:16.518Z,7.44
2023-01-13T02:06:19.277Z,7.52
2023-01-13T02:09:21.210Z,7.58
2023-01-13T02:12:30.582Z,7.57
2023-01-13T02:15:43.263Z,7.65
2023-01-13T02:19:29.118Z,7.64
2023-01-13T02:22:46.617Z,7.53
2023-01-13T02:26:00.755Z,7.64
2023-01-13T02:29:59.249Z,7.65
2023-01-13T02:33:30.635Z,7.59
2023-01-13T02:36:46.849Z,7.57
2023-01-13T02:40:02.520Z,7.58
2023-01-13T02:43:42.386Z,7.69
2023-01-13T02:46:52.148Z,7.62
2023-01-13T02:50:03.112Z,7.67
2023-01-13T02:53:14.219Z,7.66
2023-01-13T02:56:17.733Z,7.61
2023-01-13T02:59:20.991Z,7.66
2023-01-13T03:02:24.405Z,7.57
2023-01-13T03:05:26.853Z,7.59
2023-01-13T03:08:50.639Z,7.58
2023-01-13T03:12:28.853Z,7.68
2023-01-13T03:16:03.579Z,7.68
2023-01-13T03:19:11.093Z,7.60
2023-01-13T03:22:31.635Z,7.70
2023-01-13T03:25:48.339Z,7.63
2023-01-13T03:28:56.926Z,7.64
2023-01-13T03:32:11.081Z,7.57
2023-01-13T03:35:20.758Z,7.58
2023-01-13T03:38:31.896Z,7.69
2023-01-13T03:41:43.688Z,7.58
2023-01-13T03:44:52.836Z,7.60
2023-01-13T03:47:57.809Z,7.60
2023-01-13T03:51:07.103Z,7.64
2023-01-13T03:54:14.082Z,7.69
2023-01-13T03:57:19.956Z,7.69
2023-01-13T04:00:31.775Z,7.61
2023-01-13T04:03:42.151Z,7.59
2023-01-13T04:07:06.286Z,7.65
2023-01-13T04:10:10.365Z,7.65
2023-01-13T04:13:17.184Z,7.64
2023-01-13T04:16:18.967Z,7.71
2023-01-13T04:19:21.856Z,7.71
2023-01-13T04:22:23.547Z,7.77
2023-01-13T04:25:25.277Z,7.79
2023-01-13T04:28:27.081Z,7.69
2023-01-13T04:31:29.197Z,7.71
2023-01-13T04:34:31.367Z,7.84
2023-01-13T04:37:33.564Z,7.88
2023-01-13T04:40:35.504Z,7.81
2023-01-13T04:43:37.246Z,7.84
2023-01-13T04:46:38.966Z,7.80
2023-01-13T04:49:40.690Z,7.88
2023-01-13T04:52:42.393Z,8.00
2023-01-13T04:55:44.750Z,7.93
2023-01-13T04:58:46.588Z,7.97
2023-01-13T05:01:48.599Z,8.01
2023-01-13T05:04:50.541Z,8.02
2023-01-13T05:07:52.376Z,8.06
2023-01-13T05:10:59.874Z,8.09
2023-01-13T05:14:20.271Z,8.08
2023-01-13T05:17:24.994Z,8.13
2023-01-13T05:20:27.116Z,8.12
2023-01-13T05:23:47.393Z,8.17
2023-01-13T05:26:49.638Z,8.12
2023-01-13T05:29:52.026Z,8.14
2023-01-13T05:32:54.564Z,8.21
2023-01-13T05:35:56.966Z,8.27
2023-01-13T05:38:58.851Z,8.18
2023-01-13T05:42:32.963Z,8.15
2023-01-13T05:45:35.135Z,8.19
2023-01-13T05:48:41.861Z,8.22
2023-01-13T05:51:43.661Z,8.18
2023-01-13T05:54:45.952Z,8.19
2023-01-13T05:57:47.831Z,8.18
2023-01-13T06:00:50.181Z,8.24
2023-01-13T06:03:52.377Z,8.28
2023-01-13T06:06:56.110Z,8.24
2023-01-13T06:09:57.987Z,8.31
2023-01-13T06:12:59.795Z,8.33
2023-01-13T06:16:01.803Z,8.29
2023-01-13T06:19:09.165Z,8.30
2023-01-13T06:22:23.568Z,8.40
2023-01-13T06:25:47.225Z,8.44
2023-01-13T06:28:50.176Z,8.32
2023-01-13T06:31:52.829Z,8.38
2023-01-13T06:35:05.422Z,8.40
2023-01-13T06:38:13.829Z,8.45
2023-01-13T06:41:18.263Z,8.39
2023-01-13T06:44:21.966Z,8.31
2023-01-13T06:47:27.377Z,8.45
2023-01-13T06:50:30.575Z,8.44
2023-01-13T06:53:33.309Z,8.44
2023-01-13T06:56:35.551Z,8.34
2023-01-13T06:59:37.691Z,8.42
2023-01-13T07:02:39.549Z,8.45
2023-01-13T07:05:43.704Z,8.41
2023-01-13T07:08:51.490Z,8.34
2023-01-13T07:11:53.227Z,8.35
2023-01-13T07:15:14.366Z,8.36
2023-01-13T07:18:16.174Z,8.38
2023-01-13T07:21:20.171Z,8.43
2023-01-13T07:24:24.137Z,8.36
2023-01-13T07:27:29.547Z,8.41
2023-01-13T07:30:50.364Z,8.44
2023-01-13T07:34:06.105Z,8.40
2023-01-13T07:37:08.464Z,8.44
2023-01-13T07:40:12.977Z,8.45
2023-01-13T07:43:34.218Z,8.36
2023-01-13T07:46:39.910Z,8.47
2023-01-13T07:49:41.951Z,8.44
2023-01-13T07:52:43.987Z,8.44
2023-01-13T07:55:48.704Z,8.42
2023-01-13T07:58:53.045Z,8.37
2023-01-13T08:02:07.734Z,8.37
2023-01-13T08:05:10.185Z,8.38
2023-01-13T08:08:12.987Z,8.51
2023-01-13T08:11:18.853Z,8.48
2023-01-13T08:14:28.064Z,8.45
2023-01-13T08:17:30.864Z,8.57
2023-01-13T08:20:43.027Z,8.55
2023-01-13T08:23:47.903Z,8.55
2023-01-13T08:26:50.239Z,8.61
2023-01-13T08:29:56.226Z,8.63
2023-01-13T08:32:58.140Z,8.66
2023-01-13T08:36:07.089Z,8.58
2023-01-13T08:39:11.381Z,8.66
2023-01-13T08:42:16.859Z,8.71
2023-01-13T08:45:21.106Z,8.58
2023-01-13T08:48:24.636Z,8.72
2023-01-13T08:51:37.348Z,8.74
2023-01-13T08:55:06.978Z,8.79
2023-01-13T08:58:15.720Z,8.72
2023-01-13T09:01:23.872Z,8.77
2023-01-13T09:04:29.452Z,8.82
2023-01-13T09:07:47.308Z,8.82
2023-01-13T09:11:28.666Z,8.75
2023-01-13T09:18:30.085Z,8.81
2023-01-13T09:21:44.400Z,8.78
2023-01-13T09:25:00.027Z,8.90
2023-01-13T09:28:04.174Z,8.95
2023-01-13T09:31:14.762Z,8.83
2023-01-13T09:34:38.777Z,8.94
2023-01-13T09:37:42.130Z,8.87
2023-01-13T09:40:51.108Z,8.89
2023-01-13T09:43:58.991Z,8.89
2023-01-13T09:47:04.437Z,8.91
2023-01-13T09:50:24.637Z,8.85
2023-01-13T09:53:37.379Z,9.01
2023-01-13T09:56:39.521Z,8.92
2023-01-13T09:59:45.397Z,9.04
2023-01-13T10:03:08.519Z,9.21
2023-01-13T10:06:19.351Z,9.17
2023-01-13T10:09:26.399Z,9.24
2023-01-13T10:12:49.067Z,9.22
2023-01-13T10:16:03.223Z,9.34
2023-01-13T10:19:30.282Z,9.46
2023-01-13T10:22:52.042Z,9.52
2023-01-13T10:26:07.298Z,9.52
2023-01-13T10:29:28.409Z,9.46
2023-01-13T10:32:30.721Z,9.54
2023-01-13T10:35:50.823Z,9.64
2023-01-13T10:38:59.177Z,9.62
2023-01-13T10:42:06.975Z,9.78
2023-01-13T10:45:24.542Z,9.72
2023-01-13T10:48:42.193Z,9.74
2023-01-13T10:51:44.680Z,9.73
2023-01-13T10:54:53.265Z,9.85
2023-01-13T10:57:55.408Z,9.85
2023-01-13T11:01:04.720Z,9.88
2023-01-13T11:04:28.098Z,9.86
2023-01-13T11:07:40.281Z,9.87
2023-01-13T11:10:47.315Z,9.82
2023-01-13T11:14:10.804Z,9.79
2023-01-13T11:17:35.994Z,9.87
2023-01-13T11:20:41.441Z,9.92
2023-01-13T11:23:50.279Z,9.92
2023-01-13T11:27:07.651Z,9.97
2023-01-13T11:30:24.836Z,10.02
2023-01-13T11:33:37.792Z,10.00
2023-01-13T11:36:53.074Z,9.87
2023-01-13T11:39:59.582Z,9.91
2023-01-13T11:43:32.900Z,9.88
2023-01-13T11:46:38.607Z,9.81
2023-01-13T11:49:48.736Z,9.91
2023-01-13T11:53:41.880Z,9.92
2023-01-13T11:57:12.125Z,9.98
2023-01-13T12:00:39.043Z,10.04
2023-01-13T12:03:47.850Z,10.05
2023-01-13T12:07:05.959Z,10.04
2023-01-13T12:10:44.288Z,10.02
2023-01-13T12:13:57.510Z,10.08
2023-01-13T12:17:11.822Z,10.06
2023-01-13T12:20:33.784Z,10.11
2023-01-13T12:23:43.811Z,10.11
2023-01-13T12:26:54.715Z,10.11
2023-01-13T12:30:00.037Z,10.14
2023-01-13T12:33:24.637Z,10.02
2023-01-13T12:36:35.914Z,10.13
2023-01-13T12:39:42.999Z,10.16
2023-01-13T12:43:34.868Z,10.18
2023-01-13T12:46:53.403Z,10.04
2023-01-13T12:50:36.547Z,10.12
2023-01-13T12:53:38.794Z,10.03
2023-01-13T12:56:45.388Z,9.98
2023-01-13T12:59:59.434Z,10.04
2023-01-13T13:03:18.591Z,10.05
2023-01-13T13:06:26.935Z,10.04
2023-01-13T13:09:46.287Z,9.98
2023-01-13T13:13:21.842Z,10.10
2023-01-13T13:16:26.535Z,10.07
2023-01-13T13:19:31.112Z,9.79
2023-01-13T13:22:44.845Z,9.04
2023-01-13T13:26:05.466Z,8.24
2023-01-13T13:29:16.355Z,7.76
2023-01-13T13:32:36.116Z,7.47
2023-01-13T13:37:11.061Z,7.16
2023-01-13T13:40:30.397Z,6.91
2023-01-13T13:44:19.809Z,6.60
2023-01-13T13:47:21.960Z,6.41
2023-01-13T13:50:23.949Z,6.27
2023-01-13T13:53:30.016Z,6.19
2023-01-13T13:56:38.333Z,6.15
2023-01-13T13:59:39.984Z,6.06
2023-01-13T14:02:48.447Z,6.06
2023-01-13T14:06:02.642Z,5.98
2023-01-13T14:09:04.354Z,5.94
2023-01-13T14:12:14.980Z,5.94
2023-01-13T14:15:27.258Z,5.89
2023-01-13T14:18:32.243Z,5.90
2023-01-13T14:21:33.856Z,5.87
2023-01-13T14:24:45.975Z,5.86
2023-01-13T14:27:47.580Z,5.88
2023-01-13T14:30:50.782Z,5.85
2023-01-13T14:33:57.449Z,5.88
2023-01-13T14:36:59.609Z,5.88
2023-01-13T14:40:01.178Z,5.86
2023-01-13T14:43:10.255Z,5.84
2023-01-13T14:46:12.456Z,5.83
2023-01-13T14:49:19.740Z,5.81
2023-01-13T14:52:24.862Z,5.79
2023-01-13T14:55:37.345Z,5.78
2023-01-13T14:58:40.120Z,5.66
2023-01-13T15:01:42.309Z,5.73
2023-01-13T15:04:43.995Z,5.69
2023-01-13T15:07:56.126Z,5.65
2023-01-13T15:11:03.440Z,5.64
2023-01-13T15:14:10.633Z,5.66
2023-01-13T15:17:17.435Z,5.61
2023-01-13T15:20:21.505Z,5.58
2023-01-13T15:23:23.087Z,5.58
2023-01-13T15:26:27.211Z,5.57
2023-01-13T15:29:29.290Z,5.54
2023-01-13T15:32:30.997Z,5.54
2023-01-13T15:35:33.506Z,5.43
2023-01-13T15:38:36.214Z,5.47
2023-01-13T15:41:56.356Z,5.44
2023-01-13T15:45:17.915Z,5.37
2023-01-13T15:48:24.441Z,5.33
2023-01-13T15:51:26.150Z,5.26
2023-01-13T15:54:27.688Z,5.22
2023-01-13T15:57:32.571Z,5.15
2023-01-13T16:00:34.251Z,5.07
2023-01-13T16:03:35.839Z,5.04
2023-01-13T16:06:37.407Z,4.99
2023-01-13T16:09:39.028Z,4.85
2023-01-13T16:12:40.595Z,4.82
2023-01-13T16:15:51.136Z,4.79
2023-01-13T16:18:53.940Z,4.74
2023-01-13T16:21:55.480Z,4.70
2023-01-13T16:24:57.220Z,4.58
2023-01-13T16:27:59.064Z,4.58
2023-01-13T16:31:16.124Z,4.53
2023-01-13T16:34:19.011Z,4.46
2023-01-13T16:37:23.900Z,4.44
2023-01-13T16:40:33.286Z,4.39
2023-01-13T16:43:35.331Z,4.38
2023-01-13T16:46:37.026Z,4.37
2023-01-13T16:49:38.570Z,4.31
2023-01-13T16:52:40.095Z,4.36
2023-01-13T16:55:42.755Z,4.36
2023-01-13T16:58:44.302Z,4.36
2023-01-13T17:01:46.026Z,4.38
2023-01-13T17:04:47.628Z,4.40
2023-01-13T17:07:50.449Z,4.41
2023-01-13T17:10:52.116Z,4.41
2023-01-13T17:13:53.679Z,4.45
2023-01-13T17:16:58.406Z,4.44
2023-01-13T17:20:00.052Z,4.44
2023-01-13T17:23:01.663Z,4.43
2023-01-13T17:26:03.365Z,4.43
2023-01-13T17:29:07.186Z,4.42
2023-01-13T17:32:13.458Z,4.45
2023-01-13T17:35:18.982Z,4.42
2023-01-13T17:38:20.550Z,4.42
2023-01-13T17:41:23.724Z,4.42
2023-01-13T17:44:25.423Z,4.42
2023-01-13T17:47:27.232Z,4.42
2023-01-13T17:50:30.662Z,4.44
2023-01-13T17:53:33.458Z,4.44
2023-01-13T17:56:35.008Z,4.46
2023-01-13T17:59:36.613Z,4.47
2023-01-13T18:02:38.243Z,4.42
2023-01-13T18:05:41.040Z,4.47
2023-01-13T18:08:42.879Z,4.49
2023-01-13T18:11:46.466Z,4.52
2023-01-13T18:14:48.742Z,4.52
2023-01-13T18:17:50.428Z,4.55
2023-01-13T18:21:10.551Z,4.57
2023-01-13T18:24:33.961Z,4.55
2023-01-13T18:27:38.497Z,4.58
2023-01-13T18:30:40.213Z,4.60
2023-01-13T18:33:41.820Z,4.53
2023-01-13T18:36:43.632Z,4.56
2023-01-13T18:39:45.322Z,4.56
2023-01-13T18:42:54.446Z,4.54
2023-01-13T18:45:56.256Z,4.56
2023-01-13T18:48:58.143Z,4.56
2023-01-13T18:51:59.747Z,4.56
2023-01-13T18:55:01.311Z,4.54
2023-01-13T18:58:03.028Z,4.51
2023-01-13T19:01:06.301Z,4.50
2023-01-13T19:04:15.336Z,4.48
2023-01-13T19:07:23.243Z,4.49
2023-01-13T19:10:33.812Z,4.47
2023-01-13T19:13:35.841Z,4.51
2023-01-13T19:16:37.655Z,4.54
2023-01-13T19:19:44.346Z,4.54
2023-01-13T19:22:53.713Z,4.61
2023-01-13T19:25:59.207Z,4.58
2023-01-13T19:29:00.881Z,4.66
2023-01-13T19:32:02.599Z,4.66
2023-01-13T19:35:04.818Z,4.67
2023-01-13T19:38:06.415Z,4.83
2023-01-13T19:41:28.207Z,4.84
2023-01-13T19:44:48.249Z,4.91
2023-01-13T19:47:49.830Z,5.01
2023-01-13T19:50:51.372Z,5.06
2023-01-13T19:53:52.937Z,5.06
2023-01-13T19:56:54.502Z,5.14
2023-01-13T19:59:56.134Z,5.17
2023-01-13T20:03:03.124Z,5.13
2023-01-13T20:06:11.382Z,5.19
2023-01-13T20:09:13.154Z,5.19
2023-01-13T20:12:17.433Z,5.17
2023-01-13T20:15:19.133Z,5.15
2023-01-13T20:18:20.812Z,5.13
2023-01-13T20:21:23.057Z,5.09
2023-01-13T20:24:26.178Z,5.09
2023-01-13T20:27:28.089Z,5.08
2023-01-13T20:30:29.772Z,5.09
2023-01-13T20:33:31.449Z,5.12
2023-01-13T20:36:37.502Z,5.09
2023-01-13T20:39:41.201Z,5.06
2023-01-13T20:42:45.071Z,5.01
2023-01-13T20:45:46.957Z,4.99
2023-01-13T20:48:49.014Z,5.01
2023-01-13T20:51:50.704Z,4.97
2023-01-13T20:54:52.416Z,4.94
2023-01-13T20:57:54.088Z,4.87
2023-01-13T21:00:59.183Z,4.81
2023-01-13T21:04:01.535Z,4.81
2023-01-13T21:07:03.219Z,4.68
2023-01-13T21:10:05.870Z,4.69
2023-01-13T21:13:28.929Z,4.60
2023-01-13T21:16:30.681Z,4.66
2023-01-13T21:19:32.479Z,4.65
2023-01-13T21:22:34.813Z,4.64
2023-01-13T21:25:39.584Z,4.57
2023-01-13T21:28:41.164Z,4.56
2023-01-13T21:31:42.754Z,4.50
2023-01-13T21:34:44.700Z,4.46
2023-01-13T21:37:46.332Z,4.42
2023-01-13T21:41:03.053Z,4.40
2023-01-13T21:44:25.170Z,4.38
2023-01-13T21:47:45.131Z,4.33
2023-01-13T21:50:46.702Z,4.28
2023-01-13T21:53:48.221Z,4.27
2023-01-13T21:56:49.783Z,4.24
2023-01-13T21:59:51.755Z,4.23
2023-01-13T22:02:53.508Z,4.19
2023-01-13T22:05:56.520Z,4.18
2023-01-13T22:09:01.395Z,4.14
2023-01-13T22:12:03.081Z,4.11
2023-01-13T22:15:04.936Z,4.10
2023-01-13T22:18:06.600Z,4.11
2023-01-13T22:21:08.301Z,4.10
2023-01-13T22:24:10.002Z,4.07
2023-01-13T22:27:12.697Z,3.99
2023-01-13T22:30:21.763Z,4.06
2023-01-13T22:33:23.463Z,4.04
2023-01-13T22:36:25.341Z,4.04
2023-01-13T22:39:27.407Z,4.05
2023-01-13T22:42:28.913Z,4.05
2023-01-13T22:45:30.446Z,4.05
2023-01-13T22:48:32.106Z,4.02
2023-01-13T22:51:33.798Z,4.00
2023-01-13T22:54:35.519Z,3.98
2023-01-13T22:57:47.202Z,3.97
2023-01-13T23:00:49.983Z,3.95
2023-01-13T23:03:51.819Z,3.93
2023-01-13T23:06:53.490Z,3.94
2023-01-13T23:09:55.125Z,3.92
2023-01-13T23:12:56.779Z,3.86
2023-01-13T23:16:06.797Z,3.94
2023-01-13T23:19:08.457Z,3.93
2023-01-13T23:22:09.977Z,3.92
2023-01-13T23:25:11.660Z,3.90
2023-01-13T23:28:13.200Z,3.92
2023-01-13T23:31:17.855Z,3.94
2023-01-13T23:34:19.453Z,3.93
2023-01-13T23:37:20.965Z,3.94
2023-01-13T23:40:22.549Z,3.96
2023-01-13T23:43:26.303Z,4.00
2023-01-13T23:46:32.624Z,4.02
2023-01-13T23:49:34.201Z,4.03
2023-01-13T23:52:35.829Z,4.04
2023-01-13T23:55:37.486Z,4.04
2023-01-13T23:58:39.537Z,4.03
